sensor_id;sensor_type;location;lat;lon;timestamp;P1;durP1;ratioP1;P2;durP2;ratioP2
55987;SDS011;75964;50.930;4.514;2024-02-28T00:00:31;22.83;;;15.27;;
55987;SDS011;75964;50.930;4.514;2024-02-28T00:02:56;22.33;;;15.10;;
55987;SDS011;75964;50.930;4.514;2024-02-28T00:05:22;23.83;;;15.95;;
55987;SDS011;75964;50.930;4.514;2024-02-28T00:07:47;24.40;;;15.63;;
55987;SDS011;75964;50.930;4.514;2024-02-28T00:10:25;23.08;;;15.10;;
55987;SDS011;75964;50.930;4.514;2024-02-28T00:12:50;24.88;;;16.10;;
55987;SDS011;75964;50.930;4.514;2024-02-28T00:15:16;26.25;;;16.50;;
55987;SDS011;75964;50.930;4.514;2024-02-28T00:17:41;23.95;;;16.27;;
55987;SDS011;75964;50.930;4.514;2024-02-28T00:20:07;25.20;;;16.05;;
55987;SDS011;75964;50.930;4.514;2024-02-28T00:22:37;25.40;;;16.35;;
55987;SDS011;75964;50.930;4.514;2024-02-28T00:25:03;26.70;;;16.47;;
55987;SDS011;75964;50.930;4.514;2024-02-28T00:27:31;26.92;;;16.40;;
55987;SDS011;75964;50.930;4.514;2024-02-28T00:29:58;29.55;;;16.85;;
55987;SDS011;75964;50.930;4.514;2024-02-28T00:32:24;25.08;;;15.93;;
55987;SDS011;75964;50.930;4.514;2024-02-28T00:34:50;30.42;;;16.40;;
55987;SDS011;75964;50.930;4.514;2024-02-28T00:37:15;25.38;;;15.25;;
55987;SDS011;75964;50.930;4.514;2024-02-28T00:39:42;23.20;;;15.27;;
55987;SDS011;75964;50.930;4.514;2024-02-28T00:42:09;21.50;;;14.85;;
55987;SDS011;75964;50.930;4.514;2024-02-28T00:44:35;23.85;;;15.45;;
55987;SDS011;75964;50.930;4.514;2024-02-28T00:47:01;25.92;;;15.80;;
55987;SDS011;75964;50.930;4.514;2024-02-28T00:49:26;23.60;;;14.68;;
55987;SDS011;75964;50.930;4.514;2024-02-28T00:51:52;26.02;;;15.18;;
55987;SDS011;75964;50.930;4.514;2024-02-28T00:54:18;23.33;;;14.25;;
55987;SDS011;75964;50.930;4.514;2024-02-28T00:56:43;22.77;;;15.18;;
55987;SDS011;75964;50.930;4.514;2024-02-28T00:59:09;22.10;;;15.65;;
55987;SDS011;75964;50.930;4.514;2024-02-28T01:01:37;27.15;;;16.38;;
55987;SDS011;75964;50.930;4.514;2024-02-28T01:04:03;24.00;;;16.25;;
55987;SDS011;75964;50.930;4.514;2024-02-28T01:06:29;23.25;;;15.82;;
55987;SDS011;75964;50.930;4.514;2024-02-28T01:08:54;23.98;;;15.45;;
55987;SDS011;75964;50.930;4.514;2024-02-28T01:11:20;23.98;;;15.00;;
55987;SDS011;75964;50.930;4.514;2024-02-28T01:13:46;19.67;;;14.98;;
55987;SDS011;75964;50.930;4.514;2024-02-28T01:16:11;26.48;;;16.77;;
55987;SDS011;75964;50.930;4.514;2024-02-28T01:18:37;21.30;;;14.93;;
55987;SDS011;75964;50.930;4.514;2024-02-28T01:21:02;26.23;;;15.98;;
55987;SDS011;75964;50.930;4.514;2024-02-28T01:23:28;25.52;;;15.57;;
55987;SDS011;75964;50.930;4.514;2024-02-28T01:25:54;23.70;;;15.57;;
55987;SDS011;75964;50.930;4.514;2024-02-28T01:28:20;24.98;;;15.35;;
55987;SDS011;75964;50.930;4.514;2024-02-28T01:30:48;24.38;;;15.38;;
55987;SDS011;75964;50.930;4.514;2024-02-28T01:33:13;27.55;;;15.70;;
55987;SDS011;75964;50.930;4.514;2024-02-28T01:35:39;21.70;;;15.43;;
55987;SDS011;75964;50.930;4.514;2024-02-28T01:38:05;27.85;;;15.65;;
55987;SDS011;75964;50.930;4.514;2024-02-28T01:40:30;28.40;;;15.40;;
55987;SDS011;75964;50.930;4.514;2024-02-28T01:43:03;20.88;;;14.43;;
55987;SDS011;75964;50.930;4.514;2024-02-28T01:45:32;24.30;;;15.40;;
55987;SDS011;75964;50.930;4.514;2024-02-28T01:47:58;24.73;;;15.50;;
55987;SDS011;75964;50.930;4.514;2024-02-28T01:50:24;25.10;;;16.38;;
55987;SDS011;75964;50.930;4.514;2024-02-28T01:52:49;25.58;;;15.73;;
55987;SDS011;75964;50.930;4.514;2024-02-28T01:55:15;26.38;;;17.15;;
55987;SDS011;75964;50.930;4.514;2024-02-28T01:57:42;24.17;;;16.67;;
55987;SDS011;75964;50.930;4.514;2024-02-28T02:00:07;27.05;;;17.83;;
55987;SDS011;75964;50.930;4.514;2024-02-28T02:02:34;28.17;;;17.58;;
55987;SDS011;75964;50.930;4.514;2024-02-28T02:04:59;27.05;;;16.60;;
55987;SDS011;75964;50.930;4.514;2024-02-28T02:07:25;27.42;;;16.65;;
55987;SDS011;75964;50.930;4.514;2024-02-28T02:09:51;25.40;;;16.88;;
55987;SDS011;75964;50.930;4.514;2024-02-28T02:12:18;23.80;;;16.25;;
55987;SDS011;75964;50.930;4.514;2024-02-28T02:14:50;26.85;;;16.40;;
55987;SDS011;75964;50.930;4.514;2024-02-28T02:17:21;25.65;;;16.30;;
55987;SDS011;75964;50.930;4.514;2024-02-28T02:19:47;29.67;;;16.30;;
55987;SDS011;75964;50.930;4.514;2024-02-28T02:22:13;26.90;;;14.93;;
55987;SDS011;75964;50.930;4.514;2024-02-28T02:24:39;29.55;;;16.02;;
55987;SDS011;75964;50.930;4.514;2024-02-28T02:27:05;20.98;;;14.07;;
55987;SDS011;75964;50.930;4.514;2024-02-28T02:29:31;24.98;;;14.02;;
55987;SDS011;75964;50.930;4.514;2024-02-28T02:31:56;24.75;;;15.77;;
55987;SDS011;75964;50.930;4.514;2024-02-28T02:34:22;24.58;;;15.85;;
55987;SDS011;75964;50.930;4.514;2024-02-28T02:36:48;22.45;;;15.10;;
55987;SDS011;75964;50.930;4.514;2024-02-28T02:39:13;25.15;;;14.82;;
55987;SDS011;75964;50.930;4.514;2024-02-28T02:41:39;24.00;;;15.13;;
55987;SDS011;75964;50.930;4.514;2024-02-28T02:44:06;25.27;;;15.20;;
55987;SDS011;75964;50.930;4.514;2024-02-28T02:46:32;29.13;;;15.98;;
55987;SDS011;75964;50.930;4.514;2024-02-28T02:48:58;25.77;;;14.88;;
55987;SDS011;75964;50.930;4.514;2024-02-28T02:51:23;21.92;;;16.35;;
55987;SDS011;75964;50.930;4.514;2024-02-28T02:53:50;27.73;;;15.73;;
55987;SDS011;75964;50.930;4.514;2024-02-28T02:56:16;23.08;;;15.48;;
55987;SDS011;75964;50.930;4.514;2024-02-28T02:58:42;24.45;;;15.50;;
55987;SDS011;75964;50.930;4.514;2024-02-28T03:01:07;23.00;;;14.93;;
55987;SDS011;75964;50.930;4.514;2024-02-28T03:03:34;23.00;;;15.20;;
55987;SDS011;75964;50.930;4.514;2024-02-28T03:05:59;23.02;;;15.10;;
55987;SDS011;75964;50.930;4.514;2024-02-28T03:08:25;25.30;;;15.82;;
55987;SDS011;75964;50.930;4.514;2024-02-28T03:10:51;27.88;;;15.80;;
55987;SDS011;75964;50.930;4.514;2024-02-28T03:13:16;24.83;;;15.77;;
55987;SDS011;75964;50.930;4.514;2024-02-28T03:15:43;24.60;;;15.63;;
55987;SDS011;75964;50.930;4.514;2024-02-28T03:18:09;24.13;;;15.95;;
55987;SDS011;75964;50.930;4.514;2024-02-28T03:20:34;25.73;;;15.55;;
55987;SDS011;75964;50.930;4.514;2024-02-28T03:23:03;28.30;;;16.98;;
55987;SDS011;75964;50.930;4.514;2024-02-28T03:25:31;30.70;;;16.92;;
55987;SDS011;75964;50.930;4.514;2024-02-28T03:27:57;22.67;;;16.00;;
55987;SDS011;75964;50.930;4.514;2024-02-28T03:30:24;26.73;;;16.60;;
55987;SDS011;75964;50.930;4.514;2024-02-28T03:32:50;24.92;;;15.50;;
55987;SDS011;75964;50.930;4.514;2024-02-28T03:35:16;26.60;;;16.15;;
55987;SDS011;75964;50.930;4.514;2024-02-28T03:37:41;26.85;;;15.68;;
55987;SDS011;75964;50.930;4.514;2024-02-28T03:40:07;27.73;;;17.25;;
55987;SDS011;75964;50.930;4.514;2024-02-28T03:42:33;28.40;;;17.67;;
55987;SDS011;75964;50.930;4.514;2024-02-28T03:44:59;27.80;;;16.10;;
55987;SDS011;75964;50.930;4.514;2024-02-28T03:47:24;26.52;;;16.73;;
55987;SDS011;75964;50.930;4.514;2024-02-28T03:49:50;24.88;;;16.45;;
55987;SDS011;75964;50.930;4.514;2024-02-28T03:52:16;26.50;;;16.27;;
55987;SDS011;75964;50.930;4.514;2024-02-28T03:54:42;29.52;;;16.95;;
55987;SDS011;75964;50.930;4.514;2024-02-28T03:57:08;25.55;;;16.25;;
55987;SDS011;75964;50.930;4.514;2024-02-28T04:02:02;25.20;;;16.23;;
55987;SDS011;75964;50.930;4.514;2024-02-28T04:04:28;29.15;;;17.45;;
55987;SDS011;75964;50.930;4.514;2024-02-28T04:06:54;28.85;;;17.58;;
55987;SDS011;75964;50.930;4.514;2024-02-28T04:09:19;32.95;;;18.27;;
55987;SDS011;75964;50.930;4.514;2024-02-28T04:11:45;30.73;;;17.70;;
55987;SDS011;75964;50.930;4.514;2024-02-28T04:14:11;31.20;;;17.92;;
55987;SDS011;75964;50.930;4.514;2024-02-28T04:16:43;28.77;;;18.92;;
55987;SDS011;75964;50.930;4.514;2024-02-28T04:19:10;24.90;;;16.75;;
55987;SDS011;75964;50.930;4.514;2024-02-28T04:21:36;32.45;;;18.60;;
55987;SDS011;75964;50.930;4.514;2024-02-28T04:24:02;28.70;;;16.95;;
55987;SDS011;75964;50.930;4.514;2024-02-28T04:26:28;31.77;;;17.75;;
55987;SDS011;75964;50.930;4.514;2024-02-28T04:28:54;36.67;;;18.77;;
55987;SDS011;75964;50.930;4.514;2024-02-28T04:31:21;27.73;;;17.15;;
55987;SDS011;75964;50.930;4.514;2024-02-28T04:33:46;30.55;;;18.23;;
55987;SDS011;75964;50.930;4.514;2024-02-28T04:36:12;27.30;;;16.98;;
55987;SDS011;75964;50.930;4.514;2024-02-28T04:38:38;32.67;;;17.77;;
55987;SDS011;75964;50.930;4.514;2024-02-28T04:41:03;28.25;;;17.30;;
55987;SDS011;75964;50.930;4.514;2024-02-28T04:43:29;28.95;;;17.08;;
55987;SDS011;75964;50.930;4.514;2024-02-28T04:45:55;30.67;;;18.27;;
55987;SDS011;75964;50.930;4.514;2024-02-28T04:48:20;28.70;;;16.33;;
55987;SDS011;75964;50.930;4.514;2024-02-28T04:50:46;29.67;;;17.20;;
55987;SDS011;75964;50.930;4.514;2024-02-28T04:53:11;30.92;;;18.15;;
55987;SDS011;75964;50.930;4.514;2024-02-28T04:55:37;31.58;;;17.55;;
55987;SDS011;75964;50.930;4.514;2024-02-28T04:58:03;29.00;;;17.27;;
55987;SDS011;75964;50.930;4.514;2024-02-28T05:00:28;32.15;;;17.38;;
55987;SDS011;75964;50.930;4.514;2024-02-28T05:02:54;31.50;;;17.75;;
55987;SDS011;75964;50.930;4.514;2024-02-28T05:05:20;34.85;;;18.20;;
55987;SDS011;75964;50.930;4.514;2024-02-28T05:07:45;31.55;;;17.20;;
55987;SDS011;75964;50.930;4.514;2024-02-28T05:10:11;31.20;;;17.85;;
55987;SDS011;75964;50.930;4.514;2024-02-28T05:12:37;29.02;;;16.70;;
55987;SDS011;75964;50.930;4.514;2024-02-28T05:15:03;32.72;;;17.42;;
55987;SDS011;75964;50.930;4.514;2024-02-28T05:17:29;26.08;;;17.00;;
55987;SDS011;75964;50.930;4.514;2024-02-28T05:19:54;35.17;;;18.83;;
55987;SDS011;75964;50.930;4.514;2024-02-28T05:22:22;30.63;;;18.42;;
55987;SDS011;75964;50.930;4.514;2024-02-28T05:24:47;32.67;;;18.65;;
55987;SDS011;75964;50.930;4.514;2024-02-28T05:27:14;32.60;;;19.45;;
55987;SDS011;75964;50.930;4.514;2024-02-28T05:29:41;31.33;;;19.27;;
55987;SDS011;75964;50.930;4.514;2024-02-28T05:32:08;30.95;;;17.58;;
55987;SDS011;75964;50.930;4.514;2024-02-28T05:34:34;33.72;;;19.25;;
55987;SDS011;75964;50.930;4.514;2024-02-28T05:37:00;31.83;;;18.42;;
55987;SDS011;75964;50.930;4.514;2024-02-28T05:39:26;31.95;;;18.98;;
55987;SDS011;75964;50.930;4.514;2024-02-28T05:41:54;30.65;;;17.20;;
55987;SDS011;75964;50.930;4.514;2024-02-28T05:44:20;29.92;;;18.08;;
55987;SDS011;75964;50.930;4.514;2024-02-28T05:46:45;35.80;;;18.80;;
55987;SDS011;75964;50.930;4.514;2024-02-28T05:49:11;30.80;;;17.27;;
55987;SDS011;75964;50.930;4.514;2024-02-28T05:51:37;30.08;;;19.38;;
55987;SDS011;75964;50.930;4.514;2024-02-28T05:54:02;34.88;;;19.17;;
55987;SDS011;75964;50.930;4.514;2024-02-28T05:56:28;31.85;;;18.08;;
55987;SDS011;75964;50.930;4.514;2024-02-28T05:58:55;37.38;;;19.05;;
55987;SDS011;75964;50.930;4.514;2024-02-28T06:01:20;37.33;;;19.42;;
55987;SDS011;75964;50.930;4.514;2024-02-28T06:03:49;36.60;;;19.15;;
55987;SDS011;75964;50.930;4.514;2024-02-28T06:06:15;34.47;;;18.52;;
55987;SDS011;75964;50.930;4.514;2024-02-28T06:08:42;38.55;;;19.63;;
55987;SDS011;75964;50.930;4.514;2024-02-28T06:11:08;29.23;;;17.65;;
55987;SDS011;75964;50.930;4.514;2024-02-28T06:13:34;33.75;;;19.60;;
55987;SDS011;75964;50.930;4.514;2024-02-28T06:16:01;35.50;;;19.15;;
55987;SDS011;75964;50.930;4.514;2024-02-28T06:18:27;35.10;;;18.88;;
55987;SDS011;75964;50.930;4.514;2024-02-28T06:20:53;34.92;;;19.13;;
55987;SDS011;75964;50.930;4.514;2024-02-28T06:23:20;34.47;;;19.63;;
55987;SDS011;75964;50.930;4.514;2024-02-28T06:25:58;35.65;;;19.83;;
55987;SDS011;75964;50.930;4.514;2024-02-28T06:28:24;33.00;;;18.75;;
55987;SDS011;75964;50.930;4.514;2024-02-28T06:30:50;36.83;;;21.13;;
55987;SDS011;75964;50.930;4.514;2024-02-28T06:33:15;36.78;;;19.90;;
55987;SDS011;75964;50.930;4.514;2024-02-28T06:35:41;32.22;;;18.90;;
55987;SDS011;75964;50.930;4.514;2024-02-28T06:38:07;30.20;;;19.08;;
55987;SDS011;75964;50.930;4.514;2024-02-28T06:40:32;37.35;;;20.23;;
55987;SDS011;75964;50.930;4.514;2024-02-28T06:42:59;33.88;;;20.48;;
55987;SDS011;75964;50.930;4.514;2024-02-28T06:45:25;37.22;;;20.02;;
55987;SDS011;75964;50.930;4.514;2024-02-28T06:47:51;37.40;;;19.08;;
55987;SDS011;75964;50.930;4.514;2024-02-28T06:50:29;32.13;;;19.50;;
55987;SDS011;75964;50.930;4.514;2024-02-28T06:52:54;32.78;;;19.10;;
55987;SDS011;75964;50.930;4.514;2024-02-28T06:55:20;31.20;;;18.50;;
55987;SDS011;75964;50.930;4.514;2024-02-28T06:57:46;32.05;;;20.17;;
55987;SDS011;75964;50.930;4.514;2024-02-28T07:00:12;36.65;;;19.70;;
55987;SDS011;75964;50.930;4.514;2024-02-28T07:02:39;34.13;;;18.95;;
55987;SDS011;75964;50.930;4.514;2024-02-28T07:05:05;36.10;;;20.73;;
55987;SDS011;75964;50.930;4.514;2024-02-28T07:07:31;40.17;;;21.02;;
55987;SDS011;75964;50.930;4.514;2024-02-28T07:09:57;37.00;;;21.40;;
55987;SDS011;75964;50.930;4.514;2024-02-28T07:12:23;36.90;;;20.98;;
55987;SDS011;75964;50.930;4.514;2024-02-28T07:14:52;43.03;;;21.67;;
55987;SDS011;75964;50.930;4.514;2024-02-28T07:17:17;39.72;;;20.92;;
55987;SDS011;75964;50.930;4.514;2024-02-28T07:19:43;38.45;;;21.80;;
55987;SDS011;75964;50.930;4.514;2024-02-28T07:22:09;41.80;;;22.17;;
55987;SDS011;75964;50.930;4.514;2024-02-28T07:24:35;54.05;;;23.88;;
55987;SDS011;75964;50.930;4.514;2024-02-28T07:27:01;44.00;;;22.60;;
55987;SDS011;75964;50.930;4.514;2024-02-28T07:29:27;51.05;;;22.55;;
55987;SDS011;75964;50.930;4.514;2024-02-28T07:31:53;46.85;;;23.55;;
55987;SDS011;75964;50.930;4.514;2024-02-28T07:34:19;41.05;;;22.92;;
55987;SDS011;75964;50.930;4.514;2024-02-28T07:36:45;45.72;;;23.83;;
55987;SDS011;75964;50.930;4.514;2024-02-28T07:39:11;42.00;;;24.33;;
55987;SDS011;75964;50.930;4.514;2024-02-28T07:41:38;49.83;;;24.55;;
55987;SDS011;75964;50.930;4.514;2024-02-28T07:44:04;47.33;;;25.23;;
55987;SDS011;75964;50.930;4.514;2024-02-28T07:46:30;43.78;;;24.58;;
55987;SDS011;75964;50.930;4.514;2024-02-28T07:48:56;45.65;;;24.90;;
55987;SDS011;75964;50.930;4.514;2024-02-28T07:51:22;47.85;;;25.27;;
55987;SDS011;75964;50.930;4.514;2024-02-28T07:53:47;48.78;;;26.35;;
55987;SDS011;75964;50.930;4.514;2024-02-28T07:56:16;50.03;;;25.08;;
55987;SDS011;75964;50.930;4.514;2024-02-28T07:58:43;53.10;;;25.58;;
55987;SDS011;75964;50.930;4.514;2024-02-28T08:01:10;50.60;;;25.88;;
55987;SDS011;75964;50.930;4.514;2024-02-28T08:03:35;49.50;;;28.10;;
55987;SDS011;75964;50.930;4.514;2024-02-28T08:06:01;58.97;;;28.38;;
55987;SDS011;75964;50.930;4.514;2024-02-28T08:08:27;53.75;;;28.17;;
55987;SDS011;75964;50.930;4.514;2024-02-28T08:10:52;48.08;;;28.23;;
55987;SDS011;75964;50.930;4.514;2024-02-28T08:13:19;51.17;;;28.30;;
55987;SDS011;75964;50.930;4.514;2024-02-28T08:15:45;50.72;;;28.55;;
55987;SDS011;75964;50.930;4.514;2024-02-28T08:18:11;57.60;;;28.02;;
55987;SDS011;75964;50.930;4.514;2024-02-28T08:20:37;50.25;;;27.90;;
55987;SDS011;75964;50.930;4.514;2024-02-28T08:23:03;65.50;;;31.50;;
55987;SDS011;75964;50.930;4.514;2024-02-28T08:25:30;56.97;;;29.20;;
55987;SDS011;75964;50.930;4.514;2024-02-28T08:27:56;61.33;;;30.35;;
55987;SDS011;75964;50.930;4.514;2024-02-28T08:30:22;61.65;;;30.25;;
55987;SDS011;75964;50.930;4.514;2024-02-28T08:32:48;55.05;;;28.73;;
55987;SDS011;75964;50.930;4.514;2024-02-28T08:35:14;61.00;;;30.00;;
55987;SDS011;75964;50.930;4.514;2024-02-28T08:37:39;59.38;;;29.17;;
55987;SDS011;75964;50.930;4.514;2024-02-28T08:40:06;61.08;;;28.48;;
55987;SDS011;75964;50.930;4.514;2024-02-28T08:42:32;54.10;;;28.90;;
55987;SDS011;75964;50.930;4.514;2024-02-28T08:44:58;54.55;;;28.42;;
55987;SDS011;75964;50.930;4.514;2024-02-28T08:47:25;55.53;;;27.05;;
55987;SDS011;75964;50.930;4.514;2024-02-28T08:49:51;49.67;;;26.52;;
55987;SDS011;75964;50.930;4.514;2024-02-28T08:52:20;59.30;;;29.13;;
55987;SDS011;75964;50.930;4.514;2024-02-28T08:54:46;51.92;;;29.17;;
55987;SDS011;75964;50.930;4.514;2024-02-28T08:57:12;52.40;;;27.35;;
55987;SDS011;75964;50.930;4.514;2024-02-28T08:59:38;58.00;;;28.17;;
55987;SDS011;75964;50.930;4.514;2024-02-28T09:02:05;53.80;;;28.67;;
55987;SDS011;75964;50.930;4.514;2024-02-28T09:04:31;56.17;;;26.70;;
55987;SDS011;75964;50.930;4.514;2024-02-28T09:06:57;55.00;;;25.73;;
55987;SDS011;75964;50.930;4.514;2024-02-28T09:09:22;55.00;;;26.55;;
55987;SDS011;75964;50.930;4.514;2024-02-28T09:11:48;53.83;;;25.52;;
55987;SDS011;75964;50.930;4.514;2024-02-28T09:14:14;50.00;;;25.25;;
55987;SDS011;75964;50.930;4.514;2024-02-28T09:16:39;53.63;;;24.55;;
55987;SDS011;75964;50.930;4.514;2024-02-28T09:19:05;49.28;;;23.60;;
55987;SDS011;75964;50.930;4.514;2024-02-28T09:21:30;56.33;;;24.48;;
55987;SDS011;75964;50.930;4.514;2024-02-28T09:23:56;55.95;;;27.27;;
55987;SDS011;75964;50.930;4.514;2024-02-28T09:26:22;63.53;;;26.95;;
55987;SDS011;75964;50.930;4.514;2024-02-28T09:28:48;50.38;;;25.02;;
55987;SDS011;75964;50.930;4.514;2024-02-28T09:31:14;61.08;;;25.65;;
55987;SDS011;75964;50.930;4.514;2024-02-28T09:33:42;55.28;;;25.08;;
55987;SDS011;75964;50.930;4.514;2024-02-28T09:36:08;53.38;;;24.17;;
55987;SDS011;75964;50.930;4.514;2024-02-28T09:38:33;51.92;;;24.38;;
55987;SDS011;75964;50.930;4.514;2024-02-28T09:41:00;56.85;;;24.73;;
55987;SDS011;75964;50.930;4.514;2024-02-28T09:43:29;46.45;;;22.83;;
55987;SDS011;75964;50.930;4.514;2024-02-28T09:45:57;48.85;;;24.02;;
55987;SDS011;75964;50.930;4.514;2024-02-28T09:48:28;50.13;;;23.05;;
55987;SDS011;75964;50.930;4.514;2024-02-28T09:50:55;44.67;;;22.98;;
55987;SDS011;75964;50.930;4.514;2024-02-28T09:53:22;45.63;;;21.00;;
55987;SDS011;75964;50.930;4.514;2024-02-28T09:55:49;44.90;;;23.10;;
55987;SDS011;75964;50.930;4.514;2024-02-28T09:58:15;49.00;;;22.42;;
55987;SDS011;75964;50.930;4.514;2024-02-28T10:00:42;48.85;;;22.52;;
55987;SDS011;75964;50.930;4.514;2024-02-28T10:03:19;46.35;;;22.83;;
55987;SDS011;75964;50.930;4.514;2024-02-28T10:05:46;46.95;;;21.65;;
55987;SDS011;75964;50.930;4.514;2024-02-28T10:08:12;47.47;;;21.33;;
55987;SDS011;75964;50.930;4.514;2024-02-28T10:10:44;49.33;;;21.83;;
55987;SDS011;75964;50.930;4.514;2024-02-28T10:13:11;41.08;;;20.90;;
55987;SDS011;75964;50.930;4.514;2024-02-28T10:15:37;51.65;;;21.38;;
55987;SDS011;75964;50.930;4.514;2024-02-28T10:18:03;46.30;;;21.05;;
55987;SDS011;75964;50.930;4.514;2024-02-28T10:20:32;48.92;;;22.17;;
55987;SDS011;75964;50.930;4.514;2024-02-28T10:22:59;51.75;;;21.55;;
55987;SDS011;75964;50.930;4.514;2024-02-28T10:25:24;47.15;;;20.33;;
55987;SDS011;75964;50.930;4.514;2024-02-28T10:27:51;53.90;;;22.95;;
55987;SDS011;75964;50.930;4.514;2024-02-28T10:30:18;47.78;;;22.55;;
55987;SDS011;75964;50.930;4.514;2024-02-28T10:32:50;47.83;;;21.17;;
55987;SDS011;75964;50.930;4.514;2024-02-28T10:35:19;46.78;;;21.52;;
55987;SDS011;75964;50.930;4.514;2024-02-28T10:37:45;50.63;;;23.40;;
55987;SDS011;75964;50.930;4.514;2024-02-28T10:40:12;50.63;;;22.50;;
55987;SDS011;75964;50.930;4.514;2024-02-28T10:42:42;51.15;;;23.40;;
55987;SDS011;75964;50.930;4.514;2024-02-28T10:45:12;54.13;;;22.90;;
55987;SDS011;75964;50.930;4.514;2024-02-28T10:47:40;44.58;;;21.90;;
55987;SDS011;75964;50.930;4.514;2024-02-28T10:50:06;48.90;;;22.08;;
55987;SDS011;75964;50.930;4.514;2024-02-28T10:52:33;54.22;;;22.08;;
55987;SDS011;75964;50.930;4.514;2024-02-28T10:54:59;49.88;;;21.35;;
55987;SDS011;75964;50.930;4.514;2024-02-28T10:57:27;41.53;;;22.15;;
55987;SDS011;75964;50.930;4.514;2024-02-28T10:59:55;44.22;;;20.88;;
55987;SDS011;75964;50.930;4.514;2024-02-28T11:02:22;45.13;;;21.38;;
55987;SDS011;75964;50.930;4.514;2024-02-28T11:04:53;46.00;;;21.98;;
55987;SDS011;75964;50.930;4.514;2024-02-28T11:07:19;37.70;;;19.63;;
55987;SDS011;75964;50.930;4.514;2024-02-28T11:09:45;41.83;;;20.20;;
55987;SDS011;75964;50.930;4.514;2024-02-28T11:12:27;41.90;;;18.75;;
55987;SDS011;75964;50.930;4.514;2024-02-28T11:15:00;38.58;;;18.27;;
55987;SDS011;75964;50.930;4.514;2024-02-28T11:17:30;40.83;;;18.67;;
55987;SDS011;75964;50.930;4.514;2024-02-28T11:19:57;36.95;;;19.10;;
55987;SDS011;75964;50.930;4.514;2024-02-28T11:22:22;38.63;;;17.75;;
55987;SDS011;75964;50.930;4.514;2024-02-28T11:24:48;37.28;;;18.80;;
55987;SDS011;75964;50.930;4.514;2024-02-28T11:27:17;33.17;;;16.83;;
55987;SDS011;75964;50.930;4.514;2024-02-28T11:29:42;34.92;;;17.67;;
55987;SDS011;75964;50.930;4.514;2024-02-28T11:32:11;32.22;;;17.25;;
55987;SDS011;75964;50.930;4.514;2024-02-28T11:34:38;36.80;;;16.75;;
55987;SDS011;75964;50.930;4.514;2024-02-28T11:37:05;27.00;;;16.08;;
55987;SDS011;75964;50.930;4.514;2024-02-28T11:39:33;34.50;;;15.43;;
55987;SDS011;75964;50.930;4.514;2024-02-28T11:42:12;29.35;;;15.00;;
55987;SDS011;75964;50.930;4.514;2024-02-28T11:47:05;25.27;;;13.52;;
55987;SDS011;75964;50.930;4.514;2024-02-28T11:49:35;27.27;;;14.13;;
55987;SDS011;75964;50.930;4.514;2024-02-28T11:52:02;30.75;;;14.90;;
55987;SDS011;75964;50.930;4.514;2024-02-28T11:54:29;25.42;;;14.32;;
55987;SDS011;75964;50.930;4.514;2024-02-28T11:56:55;31.63;;;16.02;;
55987;SDS011;75964;50.930;4.514;2024-02-28T11:59:20;28.08;;;15.15;;
55987;SDS011;75964;50.930;4.514;2024-02-28T12:01:46;29.02;;;13.65;;
55987;SDS011;75964;50.930;4.514;2024-02-28T12:04:12;27.65;;;13.93;;
55987;SDS011;75964;50.930;4.514;2024-02-28T12:06:39;30.52;;;13.75;;
55987;SDS011;75964;50.930;4.514;2024-02-28T12:09:06;24.52;;;12.70;;
55987;SDS011;75964;50.930;4.514;2024-02-28T12:11:34;27.75;;;14.10;;
55987;SDS011;75964;50.930;4.514;2024-02-28T12:14:04;31.67;;;13.23;;
55987;SDS011;75964;50.930;4.514;2024-02-28T12:16:32;26.58;;;13.80;;
55987;SDS011;75964;50.930;4.514;2024-02-28T12:18:57;24.88;;;13.38;;
55987;SDS011;75964;50.930;4.514;2024-02-28T12:21:23;28.15;;;13.13;;
55987;SDS011;75964;50.930;4.514;2024-02-28T12:23:49;28.38;;;12.85;;
55987;SDS011;75964;50.930;4.514;2024-02-28T12:26:18;27.60;;;13.65;;
55987;SDS011;75964;50.930;4.514;2024-02-28T12:28:48;31.08;;;12.40;;
55987;SDS011;75964;50.930;4.514;2024-02-28T12:31:13;27.40;;;12.30;;
55987;SDS011;75964;50.930;4.514;2024-02-28T12:33:39;23.08;;;11.98;;
55987;SDS011;75964;50.930;4.514;2024-02-28T12:36:05;26.83;;;12.13;;
55987;SDS011;75964;50.930;4.514;2024-02-28T12:38:31;25.27;;;13.02;;
55987;SDS011;75964;50.930;4.514;2024-02-28T12:41:06;29.83;;;12.98;;
55987;SDS011;75964;50.930;4.514;2024-02-28T12:43:33;22.17;;;12.10;;
55987;SDS011;75964;50.930;4.514;2024-02-28T12:45:59;22.67;;;12.70;;
55987;SDS011;75964;50.930;4.514;2024-02-28T12:48:24;22.58;;;12.43;;
55987;SDS011;75964;50.930;4.514;2024-02-28T12:50:50;21.65;;;10.60;;
55987;SDS011;75964;50.930;4.514;2024-02-28T12:53:16;21.00;;;10.32;;
55987;SDS011;75964;50.930;4.514;2024-02-28T12:55:42;21.00;;;10.90;;
55987;SDS011;75964;50.930;4.514;2024-02-28T12:58:09;20.27;;;10.63;;
55987;SDS011;75964;50.930;4.514;2024-02-28T13:00:36;16.92;;;9.80;;
55987;SDS011;75964;50.930;4.514;2024-02-28T13:03:01;20.33;;;10.25;;
55987;SDS011;75964;50.930;4.514;2024-02-28T13:05:28;22.67;;;10.90;;
55987;SDS011;75964;50.930;4.514;2024-02-28T13:07:54;18.13;;;10.80;;
55987;SDS011;75964;50.930;4.514;2024-02-28T13:10:20;23.00;;;10.57;;
55987;SDS011;75964;50.930;4.514;2024-02-28T13:12:47;16.90;;;9.45;;
55987;SDS011;75964;50.930;4.514;2024-02-28T13:15:13;15.45;;;9.23;;
55987;SDS011;75964;50.930;4.514;2024-02-28T13:17:38;18.25;;;9.05;;
55987;SDS011;75964;50.930;4.514;2024-02-28T13:20:06;17.05;;;8.98;;
55987;SDS011;75964;50.930;4.514;2024-02-28T13:22:32;16.83;;;9.38;;
55987;SDS011;75964;50.930;4.514;2024-02-28T13:24:58;15.45;;;8.63;;
55987;SDS011;75964;50.930;4.514;2024-02-28T13:27:25;14.52;;;8.35;;
55987;SDS011;75964;50.930;4.514;2024-02-28T13:29:51;14.38;;;8.25;;
55987;SDS011;75964;50.930;4.514;2024-02-28T13:32:16;14.60;;;8.48;;
55987;SDS011;75964;50.930;4.514;2024-02-28T13:34:42;18.55;;;8.77;;
55987;SDS011;75964;50.930;4.514;2024-02-28T13:37:08;21.70;;;7.75;;
55987;SDS011;75964;50.930;4.514;2024-02-28T13:39:33;17.42;;;8.57;;
55987;SDS011;75964;50.930;4.514;2024-02-28T13:42:00;15.82;;;8.65;;
55987;SDS011;75964;50.930;4.514;2024-02-28T13:44:31;14.15;;;7.68;;
55987;SDS011;75964;50.930;4.514;2024-02-28T13:46:57;12.45;;;6.90;;
55987;SDS011;75964;50.930;4.514;2024-02-28T13:49:23;11.75;;;6.50;;
55987;SDS011;75964;50.930;4.514;2024-02-28T13:51:48;10.60;;;6.13;;
55987;SDS011;75964;50.930;4.514;2024-02-28T13:54:14;8.65;;;5.13;;
55987;SDS011;75964;50.930;4.514;2024-02-28T13:56:40;9.48;;;5.20;;
55987;SDS011;75964;50.930;4.514;2024-02-28T13:59:06;12.57;;;5.32;;
55987;SDS011;75964;50.930;4.514;2024-02-28T14:01:32;10.18;;;5.30;;
55987;SDS011;75964;50.930;4.514;2024-02-28T14:03:58;9.43;;;5.07;;
55987;SDS011;75964;50.930;4.514;2024-02-28T14:06:23;11.00;;;5.05;;
55987;SDS011;75964;50.930;4.514;2024-02-28T14:08:49;11.60;;;4.57;;
55987;SDS011;75964;50.930;4.514;2024-02-28T14:11:17;13.05;;;5.07;;
55987;SDS011;75964;50.930;4.514;2024-02-28T14:13:43;9.85;;;4.57;;
55987;SDS011;75964;50.930;4.514;2024-02-28T14:16:08;14.30;;;4.10;;
55987;SDS011;75964;50.930;4.514;2024-02-28T14:18:34;11.05;;;4.03;;
55987;SDS011;75964;50.930;4.514;2024-02-28T14:21:00;6.82;;;3.70;;
55987;SDS011;75964;50.930;4.514;2024-02-28T14:23:27;12.32;;;4.18;;